Beer-Sheva, Israel

12:11 PM IDT on May 30, 2015 (GMT +0300)
Shoval | | Change Station
CLOSE
Current Station
Personal Weather Station
Location: Shoval,
Elevation: 673 ft
Nearby Weather Stations

Elev 673 ft 31.41 °N, 34.74 °E | Updated 1 minute ago

Partly Cloudy
Partly Cloudy
77.1 °F
Feels Like 79 °F
N
4.0
Wind Variable Wind from WSW
Gusts 4.0 mph

Today
High -- | Low -- °F
--% Chance of Precip.
Yesterday
High -- | Low -- °F
Precip. -- in
5:38 AM 7:39 PM
Waxing Gibbous, 89% visible
Pressure 29.95 in
Visibility 6.2 miles
Clouds Few 3200 ft
Heat Index 79 °F
Dew Point 59 °F
Humidity 53%
Rainfall 0.00 in
Snow Depth Not available.
UV 14 out of 12
Pollen Not available.
Air Quality Not available.
Flu Activity Not available.
METAR LLBG 300850Z 26009KT 9999 FEW032 25/14 Q1014 NOSIG

More Conditions Fewer Conditions

Pressure 29.95 in
Visibility 6.2 miles
Clouds Few 3200 ft
Heat Index 79 °F
Dew Point 59 °F
Humidity 53%
Rainfall 0.00 in
Snow Depth Not available.
UV 14 out of 12
Pollen Not available.
Air Quality Not available.
Flu Activity Not available.
METAR LLBG 300850Z 26009KT 9999 FEW032 25/14 Q1014 NOSIG

More Conditions Fewer Conditions

10-Day Weather Forecast

Almanac

Astronomy

May. 30, 2015 Rise Set
Actual Time
Civil Twilight
Nautical Twilight
Astronomical Twilight
Moon
Length of Visible Light
Length of Day
Tomorrow will be .
, % of the Moon is Illuminated

Today's Extremes

Country Highs Country Lows

Community

WunderPhotos

Upload Photos

1,825,473 photos uploaded!

WunderBlogs® & News

Nearby

Air Quality

  Air Quality AQ Index Pollutant
Not available.

Snow Depth

Station Depth Elevation

Earthquake Activity

City Distance Mag. Time & Date
Minimum magnitude displayed is 2.5.

Coastal Water Temperatures

Place Temperature

Stations

Nearby Weather Stations

Station Location Temp. Windchill Dew Point Humidity Wind Precip. Elev Updated Type